Time;durP1;ratioP1;P1;durP2;ratioP2;P2;SDS_P1;SDS_P2;PMS_P1;PMS_P2;Temp;Humidity;BMP_temperature;BMP_pressure;BME280_temperature;BME280_humidity;BME280_pressure;Samples;Min_cycle;Max_cycle;Signal;HPM_P1;HPM_P2
2023/01/24 00:02:00;;;;;;;892.72;610.70;;;2.50;99.90;;;;;;5095601;28;20032;-71
2023/01/24 00:04:26;;;;;;;582.33;547.28;;;2.50;99.90;;;;;;5097312;28;20032;-72
2023/01/24 00:06:52;;;;;;;716.55;674.40;;;2.60;99.90;;;;;;5095789;28;20061;-71
2023/01/24 00:09:17;;;;;;;676.90;639.20;;;2.50;99.90;;;;;;5101707;28;20506;-72
2023/01/24 00:11:43;;;;;;;1999.90;999.90;;;2.50;99.90;;;;;;5099468;28;20482;-69
2023/01/24 00:14:09;;;;;;;1045.05;757.92;;;2.40;99.90;;;;;;5102772;28;20497;-71
2023/01/24 00:16:34;;;;;;;893.40;620.88;;;2.50;99.90;;;;;;5098757;28;20767;-72
2023/01/24 00:19:00;;;;;;;699.72;660.08;;;2.50;99.90;;;;;;5090159;28;20039;-72
2023/01/24 00:21:25;;;;;;;585.80;555.75;;;2.50;99.90;;;;;;5098667;28;20136;-71
2023/01/24 00:23:53;;;;;;;1564.32;810.05;;;2.60;99.90;;;;;;5098525;28;20040;-72
2023/01/24 00:26:20;;;;;;;590.58;553.42;;;2.40;99.90;;;;;;5099938;28;20035;-72
2023/01/24 00:28:46;;;;;;;1278.95;758.85;;;2.50;99.90;;;;;;5100401;28;20032;-72
2023/01/24 00:31:12;;;;;;;1256.80;740.20;;;2.50;99.90;;;;;;5096326;28;20035;-72
2023/01/24 00:33:38;;;;;;;1999.90;999.90;;;2.50;99.90;;;;;;5096866;28;20032;-71
2023/01/24 00:36:04;;;;;;;631.13;592.45;;;2.60;99.90;;;;;;5077410;28;20047;-72
2023/01/24 00:38:30;;;;;;;805.80;754.65;;;2.60;99.90;;;;;;5101292;28;20032;-72
2023/01/24 00:40:56;;;;;;;1999.90;999.90;;;2.60;99.90;;;;;;5097211;28;20039;-72
2023/01/24 00:43:22;;;;;;;682.60;633.30;;;2.60;99.90;;;;;;5101444;28;20035;-72
2023/01/24 00:45:48;;;;;;;651.88;612.08;;;2.50;99.90;;;;;;5101988;28;20507;-72
2023/01/24 00:48:14;;;;;;;571.92;541.03;;;2.50;99.90;;;;;;5076466;28;20032;-72
2023/01/24 00:50:40;;;;;;;797.13;747.80;;;2.50;99.90;;;;;;5103481;28;20100;-72
2023/01/24 00:53:06;;;;;;;696.10;654.35;;;2.50;99.90;;;;;;5093857;28;20101;-71
2023/01/24 00:55:32;;;;;;;642.67;610.40;;;2.60;99.90;;;;;;5092264;28;20054;-71
2023/01/24 00:57:58;;;;;;;758.83;712.72;;;2.60;99.90;;;;;;5095811;28;20032;-72
2023/01/24 01:00:24;;;;;;;506.77;481.65;;;2.60;99.90;;;;;;5098563;28;20037;-71
2023/01/24 01:02:50;;;;;;;1999.90;999.90;;;2.60;99.90;;;;;;5095957;28;20777;-72
2023/01/24 01:05:17;;;;;;;737.28;694.70;;;2.60;99.90;;;;;;5091028;28;20047;-72
2023/01/24 01:07:43;;;;;;;725.47;683.78;;;2.70;99.90;;;;;;5102036;28;20099;-71
2023/01/24 01:10:10;;;;;;;1999.90;999.90;;;2.70;99.90;;;;;;5095217;28;20112;-72
2023/01/24 01:12:36;;;;;;;627.75;595.38;;;2.60;99.90;;;;;;5101160;28;20107;-72
2023/01/24 01:15:02;;;;;;;672.72;631.45;;;2.50;99.90;;;;;;5101528;28;20027;-72
2023/01/24 01:17:28;;;;;;;674.30;632.47;;;2.60;99.90;;;;;;5095047;28;20046;-72
2023/01/24 01:19:53;;;;;;;716.58;673.72;;;2.60;99.90;;;;;;5096263;28;20040;-71
2023/01/24 01:22:19;;;;;;;477.92;436.70;;;2.60;99.90;;;;;;5091406;28;20039;-72
2023/01/24 01:24:45;;;;;;;1011.65;727.17;;;2.60;99.90;;;;;;5102919;28;20025;-72
2023/01/24 01:27:11;;;;;;;1999.90;999.90;;;2.50;99.90;;;;;;5092051;28;20028;-72
2023/01/24 01:29:36;;;;;;;1999.90;999.90;;;2.60;99.90;;;;;;5096479;28;20518;-72
2023/01/24 01:32:02;;;;;;;1999.90;999.90;;;2.60;99.90;;;;;;5099713;28;20063;-72
2023/01/24 01:34:28;;;;;;;1633.82;874.42;;;2.50;99.90;;;;;;5096308;28;20027;-71
2023/01/24 01:36:53;;;;;;;673.85;637.58;;;2.40;99.90;;;;;;5103686;28;20493;-71
2023/01/24 01:39:19;;;;;;;735.17;688.35;;;2.40;99.90;;;;;;5095275;28;20164;-72
2023/01/24 01:41:44;;;;;;;689.10;651.97;;;2.50;99.90;;;;;;5092067;28;20077;-72
2023/01/24 01:44:40;;;;;;;720.60;673.55;;;2.60;99.90;;;;;;5094100;28;20032;-72
2023/01/24 01:47:24;;;;;;;640.67;607.25;;;2.50;99.90;;;;;;5092115;28;20054;-72
2023/01/24 01:49:57;;;;;;;1051.40;767.35;;;2.60;99.90;;;;;;5098093;28;20036;-71
2023/01/24 01:52:25;;;;;;;1999.90;999.90;;;2.60;99.90;;;;;;5093254;28;20059;-71
2023/01/24 01:54:55;;;;;;;946.42;664.58;;;2.50;99.90;;;;;;5099511;28;20036;-71
2023/01/24 01:57:24;;;;;;;1999.90;999.90;;;2.50;99.90;;;;;;5096386;28;20050;-72
2023/01/24 01:59:58;;;;;;;593.50;552.28;;;2.60;99.90;;;;;;5107382;28;20023;-72
2023/01/24 02:02:24;;;;;;;600.08;562.05;;;2.60;99.90;;;;;;5098593;28;20024;-72
2023/01/24 02:04:56;;;;;;;1999.90;999.90;;;2.60;99.90;;;;;;5103146;28;20058;-71
2023/01/24 02:08:00;;;;;;;1999.90;999.90;;;2.60;99.90;;;;;;5100506;28;20038;-72
2023/01/24 02:11:37;;;;;;;546.75;509.50;;;2.60;99.90;;;;;;5085259;28;20043;-72
2023/01/24 02:13:13;;;;;;;1999.90;999.90;;;2.60;99.90;;;;;;5099857;28;20371;-71
2023/01/24 02:18:40;;;;;;;;;;;2.40;99.90;;;;;;5062956;28;20041;-70
2023/01/24 02:21:16;;;;;;;1999.90;999.90;;;2.50;99.90;;;;;;5116910;27;19956;-71
2023/01/24 02:24:02;;;;;;;564.00;532.25;;;2.50;99.90;;;;;;5108388;28;20038;-71
2023/01/24 02:26:28;;;;;;;784.35;732.13;;;2.60;99.90;;;;;;5102552;28;20046;-71
2023/01/24 02:29:20;;;;;;;1999.90;999.90;;;2.60;99.90;;;;;;5110605;28;20467;-71
2023/01/24 02:32:00;;;;;;;686.08;646.40;;;2.60;99.90;;;;;;5097710;28;20032;-70
2023/01/24 02:34:28;;;;;;;1999.90;999.90;;;2.50;99.90;;;;;;5103945;28;20039;-71
2023/01/24 02:37:03;;;;;;;1999.90;999.90;;;2.40;99.90;;;;;;5100015;28;20043;-71
2023/01/24 02:39:51;;;;;;;682.58;644.53;;;2.40;99.90;;;;;;5097633;28;20038;-70
2023/01/24 02:42:22;;;;;;;700.05;662.10;;;2.50;99.90;;;;;;5087813;28;20062;-72
2023/01/24 02:45:20;;;;;;;640.28;599.85;;;2.50;99.90;;;;;;5103164;28;20028;-72
2023/01/24 02:47:48;;;;;;;506.35;479.20;;;2.50;99.90;;;;;;5082441;28;20097;-72
2023/01/24 02:50:15;;;;;;;1030.18;750.90;;;2.50;99.90;;;;;;5097871;28;20038;-72
2023/01/24 02:55:25;;;;;;;1034.53;754.10;;;2.50;99.90;;;;;;5099047;28;20560;-72
2023/01/24 02:58:06;;;;;;;715.88;673.40;;;2.60;99.90;;;;;;5101812;28;20111;-71
2023/01/24 03:00:33;;;;;;;726.08;684.38;;;2.60;99.90;;;;;;5094459;28;20028;-72
2023/01/24 03:02:59;;;;;;;999.90;719.03;;;2.60;99.90;;;;;;5074360;28;20040;-71
2023/01/24 03:05:25;;;;;;;1273.15;754.08;;;2.50;99.90;;;;;;5095633;28;20526;-71
2023/01/24 03:07:50;;;;;;;593.85;550.70;;;2.60;99.90;;;;;;5098213;28;20051;-72
2023/01/24 03:10:18;;;;;;;1040.43;759.10;;;2.60;99.90;;;;;;5103927;28;20033;-71
2023/01/24 03:34:48;;;;;;;1590.20;833.30;;;2.50;99.90;;;;;;5096727;28;20035;-71
2023/01/24 03:39:53;;;;;;;587.20;552.58;;;2.50;99.90;;;;;;5103715;28;20040;-71
2023/01/24 03:40:08;;;;;;;750.45;705.00;;;2.50;99.90;;;;;;5096183;28;20173;-71
2023/01/24 03:42:34;;;;;;;674.75;638.42;;;2.50;99.90;;;;;;5092481;28;20036;-71
2023/01/24 03:45:00;;;;;;;641.10;606.90;;;2.40;99.90;;;;;;5100487;28;20036;-72
2023/01/24 03:47:26;;;;;;;567.67;537.70;;;2.40;99.90;;;;;;5097098;28;20042;-72
2023/01/24 03:52:35;;;;;;;620.05;581.20;;;2.50;99.90;;;;;;5099729;28;20077;-71
2023/01/24 03:55:01;;;;;;;1999.90;999.90;;;2.50;99.90;;;;;;5102981;28;20024;-72
2023/01/24 03:57:28;;;;;;;694.30;655.05;;;2.50;99.90;;;;;;5093655;28;20464;-72
2023/01/24 03:59:54;;;;;;;1999.90;999.90;;;2.50;99.90;;;;;;5102710;28;20027;-72
2023/01/24 04:02:20;;;;;;;704.35;654.30;;;2.50;99.90;;;;;;5101590;28;20367;-71
2023/01/24 04:07:30;;;;;;;1999.90;999.90;;;2.40;99.90;;;;;;5103329;28;20093;-72
2023/01/24 04:09:59;;;;;;;1999.90;999.90;;;2.40;99.90;;;;;;5098316;28;20537;-72
2023/01/24 04:12:26;;;;;;;1999.90;999.90;;;2.40;99.90;;;;;;5106982;28;20042;-72
2023/01/24 04:14:51;;;;;;;1999.90;999.90;;;2.40;99.90;;;;;;5097869;28;20526;-72
2023/01/24 04:17:17;;;;;;;1999.90;999.90;;;2.40;99.90;;;;;;5099486;28;20044;-72
2023/01/24 04:19:43;;;;;;;1999.90;999.90;;;2.40;99.90;;;;;;5102067;28;20130;-72
2023/01/24 04:22:09;;;;;;;1999.90;999.90;;;2.50;99.90;;;;;;5093089;28;20036;-71
2023/01/24 04:24:34;;;;;;;1999.90;999.90;;;2.40;99.90;;;;;;5102127;28;20833;-71
2023/01/24 04:27:00;;;;;;;1999.90;999.90;;;2.40;99.90;;;;;;5097969;28;20082;-72
2023/01/24 04:29:26;;;;;;;1999.90;999.90;;;2.40;99.90;;;;;;5107546;28;20020;-71
2023/01/24 04:31:51;;;;;;;1999.90;999.90;;;2.30;99.90;;;;;;5097037;28;20028;-72
2023/01/24 04:34:17;;;;;;;1999.90;999.90;;;2.30;99.90;;;;;;5092607;28;20447;-72
2023/01/24 04:36:42;;;;;;;1999.90;999.90;;;2.30;99.90;;;;;;5102199;28;20064;-72
2023/01/24 04:39:08;;;;;;;1296.53;777.78;;;2.30;99.90;;;;;;5094761;28;20537;-72
2023/01/24 04:41:34;;;;;;;1999.90;999.90;;;2.40;99.90;;;;;;5094894;28;20039;-72
2023/01/24 04:43:59;;;;;;;1999.90;999.90;;;2.40;99.90;;;;;;5096727;28;20040;-71
2023/01/24 04:46:25;;;;;;;1999.90;999.90;;;2.30;99.90;;;;;;5097468;28;20070;-71
2023/01/24 04:48:50;;;;;;;1538.32;784.60;;;2.30;99.90;;;;;;5098496;28;20020;-72
2023/01/24 04:51:16;;;;;;;993.10;711.47;;;2.30;99.90;;;;;;5092700;28;20477;-72
2023/01/24 04:53:42;;;;;;;1999.90;999.90;;;2.30;99.90;;;;;;5097564;28;20493;-72
2023/01/24 04:56:08;;;;;;;1999.90;999.90;;;2.30;99.90;;;;;;5094148;28;20092;-72
2023/01/24 04:58:34;;;;;;;1048.72;763.25;;;2.30;99.90;;;;;;5097868;28;20035;-71
2023/01/24 05:01:00;;;;;;;1999.90;999.90;;;2.30;99.90;;;;;;5095291;28;20035;-72
2023/01/24 05:03:26;;;;;;;1999.90;999.90;;;2.30;99.90;;;;;;5096895;28;20031;-71
2023/01/24 05:05:53;;;;;;;1651.78;890.08;;;2.30;99.90;;;;;;5100604;28;20040;-72
2023/01/24 05:08:19;;;;;;;1999.90;999.90;;;2.30;99.90;;;;;;5097775;28;20110;-72
2023/01/24 05:10:45;;;;;;;1999.90;999.90;;;2.30;99.90;;;;;;5096587;28;20051;-72
2023/01/24 05:13:11;;;;;;;895.58;617.30;;;2.20;99.90;;;;;;5086710;28;20056;-72
2023/01/24 05:15:37;;;;;;;755.65;486.05;;;2.20;99.90;;;;;;5093622;27;20109;-72
2023/01/24 05:18:04;;;;;;;1999.90;999.90;;;2.20;99.90;;;;;;5085543;28;20055;-82
2023/01/24 05:20:33;;;;;;;1999.90;999.90;;;2.30;99.90;;;;;;5093904;28;20054;-82
2023/01/24 05:22:59;;;;;;;1999.90;999.90;;;2.30;99.90;;;;;;5096147;28;20031;-79
2023/01/24 05:25:25;;;;;;;449.05;413.73;;;2.30;99.90;;;;;;5090358;28;20047;-71
2023/01/24 05:27:50;;;;;;;577.00;540.22;;;2.20;99.90;;;;;;5102741;28;20486;-71
2023/01/24 05:30:16;;;;;;;776.88;728.50;;;2.20;99.90;;;;;;5091454;28;20406;-71
2023/01/24 05:32:42;;;;;;;506.08;466.38;;;2.20;99.90;;;;;;5099746;28;20027;-72
2023/01/24 05:35:08;;;;;;;313.70;290.02;;;2.20;99.90;;;;;;5100153;28;20474;-72
2023/01/24 05:37:37;;;;;;;682.65;639.05;;;2.10;99.90;;;;;;5085638;28;20078;-71
2023/01/24 05:40:04;;;;;;;1029.47;747.72;;;2.20;99.90;;;;;;5093229;28;20043;-72
2023/01/24 05:42:29;;;;;;;1999.90;999.90;;;2.30;99.90;;;;;;5080810;28;20029;-72
2023/01/24 05:44:55;;;;;;;827.33;773.97;;;2.20;99.90;;;;;;5083708;28;20032;-70
2023/01/24 05:47:21;;;;;;;1396.05;869.15;;;2.10;99.90;;;;;;5087579;28;20044;-72
2023/01/24 05:49:47;;;;;;;1999.90;999.90;;;2.00;99.90;;;;;;5100410;28;20405;-72
2023/01/24 05:52:18;;;;;;;1999.90;999.90;;;2.20;99.90;;;;;;5098661;28;20043;-72
2023/01/24 05:54:44;;;;;;;632.65;588.42;;;2.10;99.90;;;;;;5089413;28;20531;-72
2023/01/24 05:57:09;;;;;;;617.30;585.72;;;2.20;99.90;;;;;;5087933;28;20044;-72
2023/01/24 05:59:35;;;;;;;1999.90;999.90;;;2.20;99.90;;;;;;5082089;28;20093;-72
2023/01/24 06:02:00;;;;;;;573.78;538.08;;;2.20;99.90;;;;;;5077243;28;20109;-72
2023/01/24 06:04:26;;;;;;;660.95;613.72;;;2.20;99.90;;;;;;5088849;28;20739;-72
2023/01/24 06:06:52;;;;;;;797.30;744.50;;;2.10;99.90;;;;;;5096458;28;20046;-72
2023/01/24 06:09:17;;;;;;;1260.90;744.97;;;2.00;99.90;;;;;;5100903;28;20035;-72
2023/01/24 06:11:43;;;;;;;686.28;644.22;;;2.00;99.90;;;;;;5087545;28;20397;-72
2023/01/24 06:14:08;;;;;;;1999.90;999.90;;;2.10;99.90;;;;;;5086168;28;20114;-71
2023/01/24 06:16:34;;;;;;;602.60;560.80;;;2.10;99.90;;;;;;5090619;28;20052;-71
2023/01/24 06:19:00;;;;;;;999.53;713.38;;;2.10;99.90;;;;;;5088076;28;20761;-71
2023/01/24 06:21:34;;;;;;;807.72;755.58;;;2.10;99.90;;;;;;5090532;28;20539;-71
2023/01/24 06:24:00;;;;;;;1999.90;999.90;;;2.10;99.90;;;;;;5090296;28;20823;-71
2023/01/24 06:26:26;;;;;;;992.55;710.17;;;2.00;99.90;;;;;;5095342;28;20040;-71
2023/01/24 06:28:52;;;;;;;950.70;664.25;;;2.00;99.90;;;;;;5094914;28;20508;-71
2023/01/24 06:31:18;;;;;;;1149.50;855.60;;;1.90;99.90;;;;;;5103413;28;20106;-71
2023/01/24 06:34:02;;;;;;;738.05;694.15;;;2.00;99.90;;;;;;5092018;28;20169;-72
2023/01/24 06:36:40;;;;;;;684.00;646.42;;;2.00;99.90;;;;;;5101488;28;20512;-71
2023/01/24 06:39:12;;;;;;;744.80;700.17;;;2.00;99.90;;;;;;5096393;28;20036;-70
2023/01/24 06:41:38;;;;;;;1126.45;832.05;;;1.90;99.90;;;;;;5093270;28;20032;-71
2023/01/24 06:44:04;;;;;;;758.80;710.38;;;1.80;99.90;;;;;;5102301;28;20390;-71
2023/01/24 06:46:29;;;;;;;660.88;626.45;;;1.80;99.90;;;;;;5096155;28;20043;-71
2023/01/24 06:48:55;;;;;;;543.95;513.85;;;1.80;99.90;;;;;;5101137;28;20072;-72
2023/01/24 06:51:20;;;;;;;677.65;640.03;;;1.90;99.90;;;;;;5097619;28;20040;-72
2023/01/24 06:53:46;;;;;;;822.10;767.70;;;1.90;99.90;;;;;;5101545;28;20114;-73
2023/01/24 06:56:12;;;;;;;692.42;645.33;;;1.80;99.90;;;;;;5096842;28;20071;-73
2023/01/24 06:58:38;;;;;;;772.97;725.90;;;1.80;99.90;;;;;;5102271;28;20775;-72
2023/01/24 07:01:04;;;;;;;1999.90;999.90;;;1.80;99.90;;;;;;5104565;28;20036;-76
2023/01/24 07:03:30;;;;;;;1999.90;999.90;;;1.90;99.90;;;;;;5102359;28;20031;-66
2023/01/24 07:05:56;;;;;;;720.95;680.47;;;1.90;99.90;;;;;;5104061;28;20048;-66
2023/01/24 07:08:22;;;;;;;671.97;632.40;;;1.90;99.90;;;;;;5098005;28;20041;-67
2023/01/24 07:10:47;;;;;;;1326.50;803.13;;;2.00;99.90;;;;;;5101588;28;20047;-75
2023/01/24 07:13:13;;;;;;;1999.90;999.90;;;2.00;99.90;;;;;;5092441;28;20039;-75
2023/01/24 07:15:38;;;;;;;1999.90;999.90;;;2.00;99.90;;;;;;5094300;28;20049;-74
2023/01/24 07:18:06;;;;;;;777.55;723.40;;;2.10;99.90;;;;;;5099076;28;20024;-74
2023/01/24 07:20:32;;;;;;;1999.90;999.90;;;2.20;99.90;;;;;;5089582;28;20532;-74
2023/01/24 07:22:58;;;;;;;570.05;529.60;;;2.10;99.90;;;;;;5098243;28;20035;-69
2023/01/24 07:25:25;;;;;;;744.33;700.00;;;2.20;99.90;;;;;;5095364;28;20051;-67
2023/01/24 07:27:52;;;;;;;767.28;720.63;;;2.40;99.90;;;;;;5096066;28;20116;-67
2023/01/24 07:30:18;;;;;;;1093.57;806.85;;;2.50;99.90;;;;;;5097217;28;20036;-66
2023/01/24 07:32:43;;;;;;;1093.57;804.33;;;2.60;99.90;;;;;;5095290;28;20031;-66
2023/01/24 07:35:10;;;;;;;1999.90;999.90;;;2.80;99.90;;;;;;5104264;28;20107;-69
2023/01/24 07:37:35;;;;;;;1999.90;999.90;;;2.70;99.90;;;;;;5091839;28;20039;-69
2023/01/24 07:40:01;;;;;;;1999.90;999.90;;;2.80;99.90;;;;;;5097323;28;20032;-69
2023/01/24 07:42:27;;;;;;;738.80;697.00;;;2.90;99.90;;;;;;5099659;28;20098;-69
2023/01/24 07:44:53;;;;;;;934.45;661.60;;;3.00;99.90;;;;;;5101417;28;20035;-69
2023/01/24 07:47:20;;;;;;;1999.90;999.90;;;3.00;99.90;;;;;;5102263;28;20114;-69
2023/01/24 07:49:45;;;;;;;1068.68;784.65;;;3.00;99.90;;;;;;5094267;28;20020;-69
2023/01/24 07:52:11;;;;;;;987.35;706.47;;;3.00;99.90;;;;;;5097170;28;20032;-69
2023/01/24 07:54:37;;;;;;;1280.07;760.88;;;3.00;99.90;;;;;;5086029;28;20031;-68
2023/01/24 07:57:03;;;;;;;622.05;582.70;;;3.00;99.90;;;;;;5094655;28;20038;-69
2023/01/24 07:59:28;;;;;;;835.47;782.10;;;2.90;99.90;;;;;;5101272;28;20118;-70
2023/01/24 08:01:54;;;;;;;1052.50;764.90;;;2.80;99.90;;;;;;5085504;28;20039;-70
2023/01/24 08:04:19;;;;;;;1154.65;861.78;;;2.80;99.90;;;;;;5101199;28;20045;-69
2023/01/24 08:09:29;;;;;;;788.05;517.90;;;2.70;99.90;;;;;;5099136;28;20047;-69
2023/01/24 08:11:56;;;;;;;1039.13;755.47;;;2.70;99.90;;;;;;5096040;28;20016;-62
2023/01/24 08:14:22;;;;;;;559.60;525.78;;;2.70;99.90;;;;;;5088588;28;20025;-76
2023/01/24 08:16:48;;;;;;;655.90;616.50;;;2.80;99.90;;;;;;5091200;28;20043;-75
2023/01/24 08:19:14;;;;;;;655.72;621.22;;;2.80;99.90;;;;;;5094920;28;20118;-75
2023/01/24 08:21:40;;;;;;;748.80;699.92;;;2.70;99.90;;;;;;5073289;28;20220;-75
2023/01/24 08:24:06;;;;;;;535.92;493.02;;;2.70;99.90;;;;;;5091339;28;20682;-75
2023/01/24 08:26:32;;;;;;;1048.53;766.10;;;2.70;99.90;;;;;;5100341;28;20038;-75
2023/01/24 08:28:58;;;;;;;1999.90;999.90;;;2.70;99.90;;;;;;5093780;28;20118;-76
2023/01/24 08:31:23;;;;;;;754.03;704.60;;;2.80;99.90;;;;;;5096852;28;20595;-75
2023/01/24 08:33:49;;;;;;;640.25;605.53;;;2.70;99.90;;;;;;5092879;28;20625;-76
2023/01/24 08:36:14;;;;;;;749.88;706.78;;;2.80;99.90;;;;;;5066999;28;20047;-75
2023/01/24 08:38:40;;;;;;;637.22;603.50;;;2.60;99.90;;;;;;5095145;28;20130;-75
2023/01/24 08:41:07;;;;;;;744.15;695.53;;;2.60;99.90;;;;;;5086915;28;20040;-76
2023/01/24 08:43:32;;;;;;;741.13;695.20;;;2.60;99.90;;;;;;5089103;28;20036;-76
2023/01/24 08:45:58;;;;;;;593.50;562.78;;;2.60;99.90;;;;;;5086473;28;20046;-76
2023/01/24 08:48:23;;;;;;;649.60;603.50;;;2.60;99.90;;;;;;5080360;28;20032;-75
2023/01/24 08:50:49;;;;;;;1999.90;999.90;;;2.60;99.90;;;;;;5089148;28;20059;-76
2023/01/24 08:53:15;;;;;;;1999.90;999.90;;;2.40;99.90;;;;;;5094201;28;20027;-75
2023/01/24 08:55:40;;;;;;;1144.88;633.55;;;2.40;99.90;;;;;;5088356;28;20035;-76
2023/01/24 08:58:06;;;;;;;809.17;758.08;;;2.40;99.90;;;;;;5089718;28;20071;-77
2023/01/24 09:00:33;;;;;;;997.95;719.67;;;2.40;99.90;;;;;;5099941;28;20039;-77
2023/01/24 09:03:00;;;;;;;1999.90;999.90;;;2.30;99.90;;;;;;5093976;28;20481;-76
2023/01/24 09:05:29;;;;;;;1999.90;999.90;;;2.30;99.90;;;;;;5093633;28;20463;-77
2023/01/24 09:07:55;;;;;;;1999.90;999.90;;;2.30;99.90;;;;;;5084060;28;20020;-76
2023/01/24 09:10:21;;;;;;;1999.90;999.90;;;2.30;99.90;;;;;;5082255;28;20120;-76
2023/01/24 09:12:46;;;;;;;1999.90;999.90;;;2.30;99.90;;;;;;5080685;28;20062;-77
2023/01/24 09:15:12;;;;;;;803.75;746.53;;;2.20;99.90;;;;;;5085060;28;20082;-77
2023/01/24 09:17:39;;;;;;;806.55;750.58;;;2.30;99.90;;;;;;5096970;28;20038;-77
2023/01/24 09:20:06;;;;;;;1999.90;999.90;;;2.20;99.90;;;;;;5084641;28;20406;-74
2023/01/24 09:22:32;;;;;;;1999.90;999.90;;;2.30;99.90;;;;;;5086064;28;20032;-77
2023/01/24 09:24:57;;;;;;;1999.90;999.90;;;2.30;99.90;;;;;;5088137;28;20078;-78
2023/01/24 09:27:23;;;;;;;865.72;799.55;;;2.20;99.90;;;;;;5094912;28;20040;-78
2023/01/24 09:29:49;;;;;;;1999.90;999.90;;;2.30;99.90;;;;;;5073562;28;20093;-79
2023/01/24 09:32:16;;;;;;;666.47;631.92;;;2.20;99.90;;;;;;5072816;28;20062;-79
2023/01/24 09:34:46;;;;;;;1999.90;999.90;;;2.30;99.90;;;;;;5087018;28;20025;-79
2023/01/24 09:37:15;;;;;;;591.80;558.83;;;2.40;99.90;;;;;;5094511;28;20027;-80
2023/01/24 09:39:42;;;;;;;1084.22;798.05;;;2.40;99.90;;;;;;5092693;28;20107;-79
2023/01/24 09:42:22;;;;;;;658.83;617.30;;;2.40;99.90;;;;;;5091893;28;20067;-79
2023/01/24 09:45:06;;;;;;;725.28;681.63;;;2.30;99.90;;;;;;5092099;28;20028;-73
2023/01/24 09:47:48;;;;;;;640.22;606.25;;;2.30;99.90;;;;;;5086654;28;20040;-81
2023/01/24 09:50:42;;;;;;;710.35;669.13;;;2.30;99.90;;;;;;5088369;28;20507;-80
2023/01/24 09:53:17;;;;;;;667.85;633.00;;;2.40;99.90;;;;;;5085753;28;20060;-81
2023/01/24 09:55:43;;;;;;;663.92;622.65;;;2.40;99.90;;;;;;5085857;28;20050;-82
2023/01/24 09:58:36;;;;;;;637.55;603.97;;;2.40;99.90;;;;;;5073143;28;20222;-82
2023/01/24 10:01:13;;;;;;;802.55;753.22;;;2.40;99.90;;;;;;5089496;28;20036;-82
2023/01/24 10:03:40;;;;;;;809.80;759.67;;;2.40;99.90;;;;;;5085446;28;20119;-82
2023/01/24 10:06:29;;;;;;;728.80;686.08;;;2.40;99.90;;;;;;5092858;28;20048;-81
2023/01/24 10:09:12;;;;;;;730.25;688.50;;;2.40;99.90;;;;;;5090287;28;20036;-82
2023/01/24 10:11:46;;;;;;;643.10;606.15;;;2.20;99.90;;;;;;5089307;28;20027;-82
2023/01/24 10:14:36;;;;;;;664.55;627.63;;;2.30;99.90;;;;;;5092703;28;20028;-81
2023/01/24 10:17:28;;;;;;;659.03;622.13;;;2.30;99.90;;;;;;5098684;28;20435;-81
2023/01/24 10:20:07;;;;;;;667.45;631.50;;;2.40;99.90;;;;;;5097571;28;20119;-81
2023/01/24 10:23:01;;;;;;;778.03;729.83;;;2.30;99.90;;;;;;5092754;28;20107;-81
2023/01/24 10:25:34;;;;;;;732.50;690.10;;;2.40;99.90;;;;;;5099028;28;20122;-81
2023/01/24 10:28:01;;;;;;;1051.53;766.03;;;2.40;99.90;;;;;;5081154;28;20118;-81
2023/01/24 10:30:42;;;;;;;681.38;638.55;;;2.40;99.90;;;;;;5095131;28;20016;-79
2023/01/24 10:33:19;;;;;;;716.63;676.33;;;2.40;99.90;;;;;;5093487;28;20032;-79
2023/01/24 10:36:13;;;;;;;670.45;630.63;;;2.30;99.90;;;;;;5099337;28;20543;-79
2023/01/24 10:38:42;;;;;;;711.13;670.92;;;2.40;99.90;;;;;;5073972;28;20535;-78
2023/01/24 10:41:22;;;;;;;627.33;595.22;;;2.30;99.90;;;;;;5098792;28;20393;-76
2023/01/24 10:44:23;;;;;;;994.47;709.35;;;2.30;99.90;;;;;;5098580;28;20043;-78
2023/01/24 10:47:22;;;;;;;703.58;665.22;;;2.30;99.90;;;;;;5095211;28;20048;-76
2023/01/24 10:49:58;;;;;;;567.70;536.65;;;2.30;99.90;;;;;;5091901;28;20504;-80
2023/01/24 10:52:23;;;;;;;727.88;684.67;;;2.40;99.90;;;;;;5097057;28;20444;-78
2023/01/24 10:54:53;;;;;;;722.78;681.50;;;2.30;99.90;;;;;;5091078;28;20128;-78
2023/01/24 10:57:24;;;;;;;727.53;681.53;;;2.40;99.90;;;;;;5098723;28;20568;-76
2023/01/24 10:59:51;;;;;;;701.40;653.15;;;2.40;99.90;;;;;;5092246;28;20059;-76
2023/01/24 11:02:23;;;;;;;725.30;684.15;;;2.30;99.90;;;;;;5087445;28;20071;-76
2023/01/24 11:05:10;;;;;;;671.67;630.50;;;2.30;99.90;;;;;;5092866;28;20103;-75
2023/01/24 11:07:40;;;;;;;672.58;637.70;;;2.30;99.90;;;;;;5092381;28;20016;-75
2023/01/24 11:10:11;;;;;;;757.67;712.63;;;2.30;99.90;;;;;;5096403;28;20065;-73
2023/01/24 11:13:06;;;;;;;714.88;673.58;;;2.30;99.90;;;;;;5085917;28;20490;-72
2023/01/24 11:15:33;;;;;;;676.83;635.13;;;2.10;99.90;;;;;;5048927;28;20043;-75
2023/01/24 11:18:04;;;;;;;671.90;636.15;;;2.10;99.90;;;;;;5090312;28;20028;-73
2023/01/24 11:20:35;;;;;;;554.28;525.65;;;2.10;99.90;;;;;;5093481;28;20514;-73
2023/01/24 11:23:02;;;;;;;723.17;682.47;;;2.20;99.90;;;;;;5089383;28;20385;-73
2023/01/24 11:25:27;;;;;;;699.70;658.78;;;2.30;99.90;;;;;;5091376;28;20027;-74
2023/01/24 11:27:53;;;;;;;677.80;640.15;;;2.10;99.90;;;;;;5082761;28;20082;-73
2023/01/24 11:30:21;;;;;;;730.47;687.92;;;2.20;99.90;;;;;;5089548;28;20032;-73
2023/01/24 11:32:53;;;;;;;655.15;621.17;;;2.20;99.90;;;;;;5091452;28;20141;-73
2023/01/24 11:35:32;;;;;;;817.97;769.13;;;2.10;99.90;;;;;;5094385;28;20031;-73
2023/01/24 11:38:08;;;;;;;707.80;670.08;;;2.10;99.90;;;;;;5097782;28;20050;-73
2023/01/24 11:40:42;;;;;;;623.33;592.50;;;2.10;99.90;;;;;;5119271;27;20035;-73
2023/01/24 11:43:33;;;;;;;719.08;675.72;;;2.20;99.90;;;;;;5091145;28;20047;-73
2023/01/24 11:46:42;;;;;;;678.50;643.83;;;2.20;99.90;;;;;;5086959;28;20461;-73
2023/01/24 11:49:45;;;;;;;623.10;591.63;;;2.30;99.90;;;;;;5086262;28;20135;-73
2023/01/24 11:52:26;;;;;;;618.33;587.25;;;2.30;99.90;;;;;;5088695;28;20070;-72
2023/01/24 11:54:54;;;;;;;643.83;610.00;;;2.30;99.90;;;;;;5087297;28;20028;-73
2023/01/24 11:57:40;;;;;;;650.35;615.85;;;2.40;99.90;;;;;;5091247;28;20072;-73
2023/01/24 12:00:34;;;;;;;645.45;612.47;;;2.40;99.90;;;;;;5089864;28;20385;-71
2023/01/24 12:03:28;;;;;;;652.30;618.72;;;2.30;99.90;;;;;;5091712;28;20077;-73
2023/01/24 12:06:17;;;;;;;1259.13;740.33;;;2.40;99.90;;;;;;5091864;28;20031;-76
2023/01/24 12:09:04;;;;;;;603.70;573.70;;;2.40;99.90;;;;;;5086116;28;20023;-74
2023/01/24 12:11:46;;;;;;;673.85;635.72;;;2.40;99.90;;;;;;5083080;28;20024;-72
2023/01/24 12:14:24;;;;;;;630.08;595.70;;;2.30;99.90;;;;;;5087556;28;20515;-72
2023/01/24 12:17:11;;;;;;;580.92;551.88;;;2.30;99.90;;;;;;5089979;28;20024;-72
2023/01/24 12:19:51;;;;;;;649.28;616.20;;;2.30;99.90;;;;;;5088614;28;20032;-72
2023/01/24 12:22:21;;;;;;;720.10;676.35;;;2.30;99.90;;;;;;5089830;28;20032;-72
2023/01/24 12:24:57;;;;;;;665.22;630.10;;;2.30;99.90;;;;;;5089870;28;20097;-74
2023/01/24 12:27:26;;;;;;;613.13;580.85;;;2.30;99.90;;;;;;5101963;27;20032;-72
2023/01/24 12:30:04;;;;;;;711.42;670.05;;;2.30;99.90;;;;;;5086092;28;20039;-74
2023/01/24 12:32:51;;;;;;;660.90;621.72;;;2.30;99.90;;;;;;5078490;28;20096;-75
2023/01/24 12:35:24;;;;;;;648.25;611.67;;;2.30;99.90;;;;;;5084118;28;20029;-76
2023/01/24 12:38:29;;;;;;;588.75;555.15;;;2.30;99.90;;;;;;5092397;28;20028;-75
2023/01/24 12:41:02;;;;;;;664.20;629.20;;;2.30;99.90;;;;;;5083957;28;20028;-74
2023/01/24 12:44:00;;;;;;;665.25;629.72;;;2.30;99.90;;;;;;5081771;28;20047;-73
2023/01/24 12:46:58;;;;;;;690.22;650.22;;;2.30;99.90;;;;;;5088443;28;20068;-74
2023/01/24 12:49:41;;;;;;;680.42;642.00;;;2.30;99.90;;;;;;5075023;28;20049;-74
2023/01/24 12:52:33;;;;;;;714.03;674.92;;;2.30;99.90;;;;;;5087633;28;20031;-73
2023/01/24 12:55:16;;;;;;;636.28;604.13;;;2.10;99.90;;;;;;5085090;28;20039;-73
2023/01/24 12:57:53;;;;;;;702.63;663.20;;;2.00;99.90;;;;;;5087904;28;20028;-73
2023/01/24 13:00:22;;;;;;;624.22;591.75;;;2.20;99.90;;;;;;5085513;28;20070;-73
2023/01/24 13:03:06;;;;;;;696.45;654.00;;;2.30;99.90;;;;;;5085052;28;20032;-72
2023/01/24 13:05:34;;;;;;;541.22;512.90;;;2.30;99.90;;;;;;5092897;28;20091;-74
2023/01/24 13:08:28;;;;;;;606.47;570.45;;;2.40;99.90;;;;;;5078340;28;20029;-73